sim
Sign-in with your pilot id or email,
or register
Callsign
Passwort

Schedule Details

Flight Number: DLH2475
Departure: London Heathrow Airport (EGLL) at 13:50
Arrival: Munich Airport (EDDM) at 15:35
Route: Lufthansa Passenger Schedule. Enter filed route here before submitting Pirep.

Weather Information
Getting current METAR information for EGLL 192220Z AUTO 04006KT 010V070 9999 NCD 16/12 Q1018 NOSIG
Getting current METAR information for EDDM 192220Z VRB01KT CAVOK 09/08 Q1017 NOSIG

Schedule Frequency

Route Map